createdAt,value
2018-06-03T00:01:08.086Z,90.50
2018-06-03T00:03:42.798Z,90.90
2018-06-03T00:06:13.292Z,91.20
2018-06-03T00:11:20.049Z,92.10
2018-06-03T00:13:50.240Z,92.20
2018-06-03T00:16:20.689Z,92.60
2018-06-03T00:18:50.967Z,92.70
2018-06-03T00:21:31.880Z,93.10
2018-06-03T00:24:02.613Z,93.30
2018-06-03T00:26:33.386Z,93.90
2018-06-03T00:31:42.363Z,93.90
2018-06-03T00:34:12.700Z,94.30
2018-06-03T00:36:47.233Z,94.20
2018-06-03T00:41:53.222Z,93.80
2018-06-03T00:44:23.610Z,93.80
2018-06-03T00:46:54.352Z,94.20
2018-06-03T00:49:28.607Z,94.60
2018-06-03T00:51:59.143Z,94.80
2018-06-03T00:54:29.311Z,94.60
2018-06-03T00:57:10.673Z,94.70
2018-06-03T00:59:41.505Z,94.90
2018-06-03T01:04:53.191Z,95.00
2018-06-03T01:07:23.702Z,95.30
2018-06-03T01:09:53.950Z,95.20
2018-06-03T01:15:00.292Z,95.40
2018-06-03T01:17:31.044Z,95.30
2018-06-03T01:20:07.061Z,95.00
2018-06-03T01:22:37.340Z,95.00
2018-06-03T01:25:07.648Z,94.90
2018-06-03T01:32:54.394Z,94.80
2018-06-03T01:35:24.718Z,94.90
2018-06-03T01:37:58.236Z,94.60
2018-06-03T01:40:28.614Z,94.40
2018-06-03T01:42:58.948Z,93.70
2018-06-03T01:48:07.209Z,93.60
2018-06-03T01:50:37.535Z,94.30
2018-06-03T01:53:08.446Z,94.30
2018-06-03T01:55:39.076Z,94.10
2018-06-03T01:58:12.599Z,94.50
2018-06-03T02:00:43.609Z,94.50
2018-06-03T02:03:14.057Z,94.40
2018-06-03T02:05:49.902Z,94.20
2018-06-03T02:11:00.527Z,94.80
2018-06-03T02:13:30.524Z,94.80
2018-06-03T02:16:00.964Z,94.70
2018-06-03T02:18:32.246Z,94.70
2018-06-03T02:21:02.763Z,94.70
2018-06-03T02:26:09.887Z,94.60
2018-06-03T02:28:40.506Z,94.80
2018-06-03T02:31:10.591Z,94.30
2018-06-03T02:33:41.095Z,94.10
2018-06-03T02:38:52.652Z,94.30
2018-06-03T02:41:23.236Z,93.70
2018-06-03T02:43:54.593Z,93.60
2018-06-03T02:46:25.403Z,94.30
2018-06-03T02:48:55.901Z,94.40
2018-06-03T02:51:26.564Z,94.40
2018-06-03T02:53:57.179Z,94.40
2018-06-03T02:58:57.127Z,94.30
2018-06-03T03:01:27.454Z,93.90
2018-06-03T03:06:37.936Z,93.20
2018-06-03T03:09:08.820Z,93.30
2018-06-03T03:11:43.448Z,93.80
2018-06-03T03:14:14.356Z,94.00
2018-06-03T03:16:44.953Z,94.10
2018-06-03T03:19:18.733Z,94.20
2018-06-03T03:21:50.048Z,94.10
2018-06-03T03:24:20.510Z,94.30
2018-06-03T03:26:50.894Z,94.30
2018-06-03T03:29:21.007Z,94.10
2018-06-03T03:34:31.926Z,94.00
2018-06-03T03:37:09.315Z,93.80
2018-06-03T03:39:39.657Z,93.70
2018-06-03T03:42:10.001Z,93.50
2018-06-03T03:44:47.546Z,93.50
2018-06-03T03:47:17.819Z,93.50
2018-06-03T03:52:27.706Z,93.70
2018-06-03T03:54:57.712Z,94.10
2018-06-03T03:57:28.367Z,94.00
2018-06-03T04:00:02.557Z,93.90
2018-06-03T04:02:33.145Z,93.40
2018-06-03T04:05:03.324Z,92.90
2018-06-03T04:07:33.359Z,93.30
2018-06-03T04:10:04.011Z,93.20
2018-06-03T04:12:35.496Z,93.30
2018-06-03T04:15:05.202Z,93.20
2018-06-03T04:17:36.998Z,92.90
2018-06-03T04:20:06.859Z,93.00
2018-06-03T04:22:43.893Z,92.70
2018-06-03T04:25:13.552Z,92.60
2018-06-03T04:27:48.151Z,91.90
2018-06-03T04:30:18.220Z,91.80
2018-06-03T04:32:48.621Z,91.50
2018-06-03T04:35:18.711Z,91.80
2018-06-03T04:40:17.917Z,91.90
2018-06-03T04:42:47.855Z,91.70
2018-06-03T04:45:17.935Z,91.50
2018-06-03T04:47:47.941Z,91.10
2018-06-03T04:50:17.879Z,90.70
2018-06-03T04:52:53.066Z,90.50
2018-06-03T04:55:23.173Z,90.50
2018-06-03T04:57:54.413Z,90.50
2018-06-03T05:00:24.873Z,90.50
2018-06-03T05:02:55.791Z,90.50
2018-06-03T05:08:02.017Z,90.70
2018-06-03T05:10:32.171Z,90.00
2018-06-03T05:13:02.967Z,89.40
2018-06-03T05:15:32.945Z,89.20
2018-06-03T05:18:02.760Z,88.90
2018-06-03T05:20:38.352Z,88.80
2018-06-03T05:23:08.442Z,88.50
2018-06-03T05:25:38.518Z,88.50
2018-06-03T05:28:08.676Z,88.80
2018-06-03T05:30:38.491Z,88.70
2018-06-03T05:33:08.538Z,88.60
2018-06-03T05:35:38.350Z,88.40
2018-06-03T05:38:08.499Z,88.10
2018-06-03T05:40:38.491Z,87.60
2018-06-03T05:43:08.688Z,87.50
2018-06-03T05:45:38.901Z,87.80
2018-06-03T05:50:44.447Z,87.50
2018-06-03T05:53:14.621Z,86.60
2018-06-03T05:55:44.289Z,86.30
2018-06-03T05:58:14.113Z,86.40
2018-06-03T06:00:44.117Z,86.50
2018-06-03T06:03:14.188Z,86.30
2018-06-03T06:05:44.579Z,86.10
2018-06-03T06:08:14.473Z,85.70
2018-06-03T06:10:44.449Z,86.00
2018-06-03T06:13:14.263Z,85.60
2018-06-03T06:15:44.177Z,85.10
2018-06-03T06:18:14.805Z,84.80
2018-06-03T06:20:44.842Z,84.40
2018-06-03T06:23:15.076Z,84.60
2018-06-03T06:25:44.842Z,84.50
2018-06-03T06:28:14.690Z,83.80
2018-06-03T06:30:44.524Z,83.50
2018-06-03T06:33:14.415Z,83.80
2018-06-03T06:35:44.085Z,83.40
2018-06-03T06:38:15.879Z,83.10
2018-06-03T06:40:46.115Z,82.40
2018-06-03T06:43:15.653Z,82.80
2018-06-03T06:45:45.359Z,82.80
2018-06-03T06:48:23.294Z,82.80
2018-06-03T06:50:53.546Z,83.20
2018-06-03T06:53:23.781Z,82.30
2018-06-03T06:55:53.603Z,81.90
2018-06-03T06:58:29.077Z,81.70
2018-06-03T07:00:58.735Z,81.70
2018-06-03T07:03:28.930Z,81.90
2018-06-03T07:05:58.840Z,81.90
2018-06-03T07:08:28.385Z,82.30
2018-06-03T07:10:58.843Z,81.30
2018-06-03T07:13:28.720Z,81.70
2018-06-03T07:15:59.968Z,81.60
2018-06-03T07:18:29.787Z,80.90
2018-06-03T07:23:39.016Z,81.20
2018-06-03T07:26:09.469Z,80.80
2018-06-03T07:28:39.315Z,80.40
2018-06-03T07:31:13.556Z,80.70
2018-06-03T07:33:43.481Z,79.60
2018-06-03T07:36:17.090Z,79.00
2018-06-03T07:38:46.960Z,79.40
2018-06-03T07:41:16.942Z,79.00
2018-06-03T07:43:47.013Z,78.80
2018-06-03T07:46:16.897Z,78.20
2018-06-03T07:48:48.134Z,78.30
2018-06-03T07:51:18.200Z,78.60
2018-06-03T07:53:48.460Z,78.60
2018-06-03T07:56:18.825Z,79.80
2018-06-03T08:01:25.264Z,79.20
2018-06-03T08:03:55.279Z,79.50
2018-06-03T08:06:25.373Z,80.30
2018-06-03T08:08:56.198Z,79.90
2018-06-03T08:11:25.700Z,79.80
2018-06-03T08:13:59.770Z,80.00
2018-06-03T08:16:29.650Z,79.50
2018-06-03T08:19:00.403Z,78.80
2018-06-03T08:21:30.243Z,78.70
2018-06-03T08:23:59.989Z,79.20
2018-06-03T08:26:33.733Z,79.50
2018-06-03T08:29:04.017Z,78.60
2018-06-03T08:31:34.392Z,78.30
2018-06-03T08:34:04.263Z,78.60
2018-06-03T08:36:34.073Z,78.60
2018-06-03T08:39:06.362Z,77.80
2018-06-03T08:41:36.561Z,77.20
2018-06-03T08:44:06.779Z,77.10
2018-06-03T08:46:36.421Z,76.50
2018-06-03T08:49:06.707Z,76.60
2018-06-03T08:51:36.998Z,76.10
2018-06-03T08:54:07.961Z,75.40
2018-06-03T08:56:38.023Z,74.80
2018-06-03T08:59:10.445Z,74.80
2018-06-03T09:01:40.649Z,74.10
2018-06-03T09:04:15.960Z,74.30
2018-06-03T09:06:46.182Z,73.90
2018-06-03T09:09:16.666Z,73.80
2018-06-03T09:11:46.960Z,73.30
2018-06-03T09:14:17.702Z,72.40
2018-06-03T09:16:47.924Z,72.60
2018-06-03T09:19:21.015Z,72.00
2018-06-03T09:24:20.975Z,70.10
2018-06-03T09:26:51.243Z,68.60
2018-06-03T09:29:23.282Z,69.30
2018-06-03T09:31:54.096Z,70.00
2018-06-03T09:34:27.059Z,70.00
2018-06-03T09:36:57.001Z,69.90
2018-06-03T09:39:30.951Z,69.80
2018-06-03T09:42:00.990Z,69.80
2018-06-03T09:44:31.402Z,69.90
2018-06-03T09:47:08.804Z,70.80
2018-06-03T09:49:39.524Z,69.90
2018-06-03T09:54:51.492Z,70.00
2018-06-03T09:57:21.824Z,69.70
2018-06-03T09:59:53.001Z,69.40
2018-06-03T10:02:22.939Z,69.60
2018-06-03T10:04:54.114Z,69.70
2018-06-03T10:07:27.608Z,68.90
2018-06-03T10:09:57.808Z,66.50
2018-06-03T10:12:27.801Z,64.90
2018-06-03T10:15:01.337Z,64.40
2018-06-03T10:17:31.599Z,64.40
2018-06-03T10:20:02.342Z,64.30
2018-06-03T10:22:33.530Z,63.50
2018-06-03T10:25:07.555Z,64.10
2018-06-03T10:27:37.833Z,63.20
2018-06-03T10:30:08.062Z,63.70
2018-06-03T10:32:38.481Z,63.80
2018-06-03T10:35:14.526Z,63.20
2018-06-03T10:37:45.076Z,63.30
2018-06-03T10:40:19.268Z,64.80
2018-06-03T10:42:53.145Z,66.20
2018-06-03T10:45:24.536Z,67.50
2018-06-03T10:47:56.045Z,69.30
2018-06-03T10:50:31.612Z,70.70
2018-06-03T10:53:01.756Z,71.50
2018-06-03T10:55:33.795Z,71.50
2018-06-03T10:58:04.068Z,71.60
2018-06-03T11:00:39.480Z,71.20
2018-06-03T11:05:44.673Z,69.20
2018-06-03T11:08:14.949Z,69.20
2018-06-03T11:10:45.217Z,68.80
2018-06-03T11:13:18.979Z,68.90
2018-06-03T11:15:49.144Z,68.80
2018-06-03T11:18:19.855Z,68.50
2018-06-03T11:20:51.081Z,68.50
2018-06-03T11:23:22.143Z,67.20
2018-06-03T11:25:53.600Z,66.50
2018-06-03T11:28:24.833Z,65.60
2018-06-03T11:30:59.588Z,63.70
2018-06-03T11:33:29.426Z,62.70
2018-06-03T11:38:36.076Z,61.80
2018-06-03T11:41:07.026Z,59.60
2018-06-03T11:43:37.347Z,59.90
2018-06-03T11:46:15.497Z,58.80
2018-06-03T11:48:46.384Z,58.20
2018-06-03T11:51:16.644Z,58.00
2018-06-03T11:53:47.526Z,57.90
2018-06-03T11:56:17.445Z,58.20
2018-06-03T11:58:56.412Z,56.30
2018-06-03T12:04:06.059Z,57.00
2018-06-03T12:09:17.877Z,57.70
2018-06-03T12:11:48.560Z,57.70
2018-06-03T12:14:32.679Z,58.30
2018-06-03T12:19:51.502Z,61.20
2018-06-03T12:22:26.475Z,60.70
2018-06-03T12:24:59.462Z,58.60
2018-06-03T12:27:47.189Z,57.00
2018-06-03T12:30:21.421Z,56.00
2018-06-03T12:32:57.403Z,57.10
2018-06-03T12:35:28.109Z,58.30
2018-06-03T12:38:02.028Z,59.70
2018-06-03T12:40:33.297Z,60.90
2018-06-03T12:45:39.357Z,61.30
2018-06-03T12:48:09.280Z,61.50
2018-06-03T12:50:39.525Z,61.60
2018-06-03T12:53:16.270Z,62.20
2018-06-03T12:55:46.648Z,61.90
2018-06-03T12:58:16.956Z,62.60
2018-06-03T13:00:47.903Z,62.20
2018-06-03T13:03:23.103Z,62.10
2018-06-03T13:05:53.509Z,61.90
2018-06-03T13:08:24.498Z,61.30
2018-06-03T13:10:56.156Z,62.00
2018-06-03T13:13:28.404Z,60.60
2018-06-03T13:15:59.719Z,60.90
2018-06-03T13:18:34.847Z,60.40
2018-06-03T13:21:05.609Z,59.90
2018-06-03T13:23:40.893Z,60.10
2018-06-03T13:28:46.212Z,60.90
2018-06-03T13:31:16.726Z,60.40
2018-06-03T13:33:49.010Z,60.60
2018-06-03T13:36:19.633Z,60.40
2018-06-03T13:38:51.397Z,59.40
2018-06-03T13:41:21.779Z,60.50
2018-06-03T13:43:56.157Z,59.90
2018-06-03T13:46:30.505Z,59.70
2018-06-03T13:49:00.944Z,59.90
2018-06-03T13:51:31.444Z,59.60
2018-06-03T13:54:01.772Z,58.50
2018-06-03T13:56:32.052Z,58.40
2018-06-03T13:59:01.960Z,57.00
2018-06-03T14:01:32.487Z,56.00
2018-06-03T14:04:03.530Z,56.70
2018-06-03T14:06:38.362Z,58.40
2018-06-03T14:09:09.319Z,58.70
2018-06-03T14:11:39.289Z,58.90
2018-06-03T14:14:09.670Z,58.60
2018-06-03T14:16:40.675Z,58.80
2018-06-03T14:19:11.273Z,60.10
2018-06-03T14:21:42.164Z,59.90
2018-06-03T14:24:13.380Z,60.70
2018-06-03T14:26:43.948Z,60.30
2018-06-03T14:29:19.303Z,60.00
2018-06-03T14:31:49.543Z,59.70
2018-06-03T14:44:22.320Z,54.20
2018-06-03T14:46:52.628Z,54.10
2018-06-03T14:49:23.048Z,52.90
2018-06-03T14:51:52.974Z,52.80
2018-06-03T14:54:23.165Z,51.30
2018-06-03T14:56:57.859Z,52.40
2018-06-03T14:59:28.225Z,53.40
2018-06-03T15:04:34.757Z,51.90
2018-06-03T15:07:08.736Z,52.90
2018-06-03T15:09:39.504Z,54.30
2018-06-03T15:12:10.940Z,53.70
2018-06-03T15:14:42.016Z,53.50
2018-06-03T15:17:12.613Z,53.20
2018-06-03T15:19:44.178Z,52.10
2018-06-03T15:22:16.991Z,52.20
2018-06-03T15:24:47.272Z,52.60
2018-06-03T15:27:17.632Z,52.20
2018-06-03T15:29:48.149Z,52.80
2018-06-03T15:32:18.163Z,53.40
2018-06-03T15:34:49.052Z,53.90
2018-06-03T15:42:31.009Z,55.20
2018-06-03T15:45:01.346Z,56.80
2018-06-03T15:47:31.725Z,57.70
2018-06-03T15:50:01.981Z,57.20
2018-06-03T15:52:32.712Z,58.20
2018-06-03T15:55:03.412Z,59.10
2018-06-03T15:57:34.948Z,60.10
2018-06-03T16:00:05.903Z,60.90
2018-06-03T16:02:36.139Z,60.80
2018-06-03T16:05:06.814Z,60.90
2018-06-03T16:07:37.150Z,61.20
2018-06-03T16:10:07.816Z,61.00
2018-06-03T16:12:38.628Z,61.00
2018-06-03T16:15:09.106Z,60.50
2018-06-03T16:17:39.328Z,61.00
2018-06-03T16:20:09.523Z,60.60
2018-06-03T16:22:39.895Z,60.40
2018-06-03T16:25:10.312Z,59.10
2018-06-03T16:27:40.841Z,59.70
2018-06-03T16:30:11.769Z,59.20
2018-06-03T16:32:42.095Z,59.50
2018-06-03T16:35:12.748Z,58.40
2018-06-03T16:37:43.769Z,58.20
2018-06-03T16:40:14.450Z,58.00
2018-06-03T16:45:22.356Z,57.50
2018-06-03T16:47:53.456Z,56.90
2018-06-03T16:50:24.460Z,55.80
2018-06-03T16:52:55.108Z,55.30
2018-06-03T16:55:30.477Z,55.70
2018-06-03T16:58:04.033Z,55.50
2018-06-03T17:00:34.599Z,55.90
2018-06-03T17:03:04.297Z,56.00
2018-06-03T17:05:38.091Z,56.00
2018-06-03T17:08:08.535Z,56.30
2018-06-03T17:13:15.637Z,56.90
2018-06-03T17:15:46.196Z,58.50
2018-06-03T17:18:14.974Z,59.90
2018-06-03T17:20:54.079Z,60.70
2018-06-03T17:23:25.544Z,60.70
2018-06-03T17:25:55.234Z,60.40
2018-06-03T17:28:25.746Z,60.80
2018-06-03T17:30:55.847Z,61.00
2018-06-03T17:33:26.326Z,60.50
2018-06-03T17:35:55.237Z,60.50
2018-06-03T17:38:24.671Z,61.10
2018-06-03T17:40:55.069Z,61.50
2018-06-03T17:43:23.950Z,60.70
2018-06-03T17:45:56.755Z,60.70
2018-06-03T17:48:31.071Z,60.90
2018-06-03T17:51:01.366Z,61.70
2018-06-03T17:53:31.929Z,62.80
2018-06-03T17:56:02.686Z,63.70
2018-06-03T17:58:33.956Z,64.50
2018-06-03T18:01:05.522Z,65.20
2018-06-03T18:03:37.145Z,66.00
2018-06-03T18:06:07.992Z,66.10
2018-06-03T18:08:37.086Z,66.20
2018-06-03T18:11:06.211Z,66.80
2018-06-03T18:13:39.346Z,67.40
2018-06-03T18:16:15.521Z,68.10
2018-06-03T18:18:48.722Z,68.40
2018-06-03T18:21:20.318Z,68.80
2018-06-03T18:23:52.728Z,68.90
2018-06-03T18:26:23.829Z,69.80
2018-06-03T18:31:36.327Z,70.40
2018-06-03T18:34:08.417Z,70.70
2018-06-03T18:42:01.189Z,72.10
2018-06-03T18:44:36.531Z,72.20
2018-06-03T18:47:07.965Z,72.70
2018-06-03T18:49:38.846Z,73.00
2018-06-03T18:52:10.926Z,73.10
2018-06-03T18:54:39.966Z,74.00
2018-06-03T18:57:14.485Z,74.10
2018-06-03T18:59:44.437Z,73.90
2018-06-03T19:02:21.622Z,74.60
2018-06-03T19:04:51.153Z,74.90
2018-06-03T19:07:21.659Z,75.40
2018-06-03T19:09:51.971Z,75.90
2018-06-03T19:12:22.002Z,76.60
2018-06-03T19:14:51.574Z,77.40
2018-06-03T19:17:24.096Z,78.20
2018-06-03T19:19:56.669Z,78.30
2018-06-03T19:22:25.849Z,78.60
2018-06-03T19:27:32.157Z,79.80
2018-06-03T19:30:08.035Z,79.90
2018-06-03T19:32:39.667Z,80.40
2018-06-03T19:35:14.130Z,80.80
2018-06-03T19:37:43.604Z,81.30
2018-06-03T19:40:13.200Z,81.60
2018-06-03T19:42:44.489Z,82.40
2018-06-03T19:45:16.034Z,83.10
2018-06-03T19:47:55.354Z,84.10
2018-06-03T19:50:24.422Z,84.40
2018-06-03T19:52:54.554Z,85.20
2018-06-03T19:55:25.921Z,85.60
2018-06-03T19:57:56.813Z,86.30
2018-06-03T20:00:29.279Z,86.30
2018-06-03T20:03:01.535Z,86.70
2018-06-03T20:05:31.625Z,86.80
2018-06-03T20:08:04.532Z,87.50
2018-06-03T20:10:36.110Z,87.80
2018-06-03T20:13:07.372Z,88.30
2018-06-03T20:15:39.835Z,88.70
2018-06-03T20:18:18.096Z,89.30
2018-06-03T20:20:49.938Z,89.20
2018-06-03T20:23:22.189Z,89.60
2018-06-03T20:25:54.583Z,89.50
2018-06-03T20:28:26.837Z,90.00
2018-06-03T20:30:59.923Z,89.80
2018-06-03T20:33:32.037Z,90.20
